Česky Dansk Deutsch English Español Suomi Français Magyar Italiano Nederlands norsk Polski Português svenska Türkçe

 

Het Weer

Tiree (Groot Britanië)

08:50, 15 augustus 2016 (GMT)

NWNNE
WE
SWSSE
Home            
Tiree Islay Benbecula Machrihanish Campbeltown Eglinton / Londonderr Glasgow Airport Prestwick Airport Stornoway Inverness / Dalcross Belfast / Aldergrove Airport Perth / Scone West Freugh Belfast / Harbour Edinburgh Airport Tain Range Dundee / Riverside Kinloss Leuchars Lossiemouth Aberdeen / Dyce Cowden Carlisle

Om een weerknop op uw website of weblog te plaatsen, copieer onderstaande code en plak die in uw pagina. In het eerste vakje staat HTML-code, in het tweede vakje UBB-code.


Add to Google

Details

Wind speed:4 bf, 15 kn, 7.7 m/s, 17.3 miles/h, 27.8 km/h
Wind direction:SSE, 150°
Visibility:Greater than 10000 m, 10 km, 32800 ft, 6.2 miles
Clouds:Durchbrochene Bewölkung at 3000 ft, 914 m
Temperature:15°C, 59°F
Dew-point:13°C, 55°F
Atmospheric pressure:1022 hPa, 766.6 mmHg, 30.18 inHg, 1.009 atm
Relative humidity:87.8 %
METAR:EGPU 150850Z 15015KT 9999 BKN030 15/13 Q1022

Snelkoppelingen

Actuele weersinformatie van de hele wereld. Voeg locaties toe met het plus (+) symbool. Deze snelkoppelingen kunnen worden toegevoegd aan Google.

Lid van de Technetium groep

website free tracking
StatCounter NetStat W3C Validator

20-01-2021 02:15:46
astro.technetium.be money.technetium.be phote.technetium.be tafeltennistafel.technetium.be www.ligfiets.net